Terminal Aerodrome Forecast
Issued by NWS Bismarck, ND

Home | Current Version | Previous Version | Graphics & Text | Print | Product List | Glossary On
Versions: 1 2 3 4 5 6 7 8 9 10 11 12 13 14 15 16 17
794
FTUS43 KBIS 040520
TAFBIS
TAF
KBIS 040520Z 0406/0506 29008KT P6SM VCSH SCT030 BKN060
     FM040900 32008KT P6SM BKN025
     FM041200 33006KT P6SM BKN015
     FM041800 25004KT P6SM BKN140
     FM042200 19005KT P6SM BKN120=

USA.gov is the U.S. government's official web portal to all federal, state and local government web resources and services.